Time;durP1;ratioP1;P1;durP2;ratioP2;P2;SDS_P1;SDS_P2;PMS_P1;PMS_P2;Temp;Humidity;BMP_temperature;BMP_pressure;BME280_temperature;BME280_humidity;BME280_pressure;Samples;Min_cycle;Max_cycle;Signal;HPM_P1;HPM_P2
2021/12/19 00:00:19;;;;;;;12.23;7.78;;;6.80;99.90;;;;;;5003754;28;20050;-57
2021/12/19 00:03:01;;;;;;;10.98;8.20;;;6.80;99.90;;;;;;5011579;28;20081;-57
2021/12/19 00:10:57;;;;;;;16.25;8.82;;;6.90;99.90;;;;;;5007800;28;20041;-57
2021/12/19 00:13:27;;;;;;;16.08;8.98;;;6.90;99.90;;;;;;5010742;28;20080;-56
2021/12/19 00:15:54;;;;;;;16.40;8.60;;;6.90;99.90;;;;;;5010572;28;20409;-58
2021/12/19 00:18:19;;;;;;;13.05;8.75;;;6.90;99.90;;;;;;5011782;28;20046;-57
2021/12/19 00:20:45;;;;;;;11.02;8.32;;;6.90;99.90;;;;;;5010841;28;20056;-55
2021/12/19 00:23:11;;;;;;;13.30;8.02;;;7.00;99.90;;;;;;5008152;28;20508;-58
2021/12/19 00:25:37;;;;;;;11.52;7.93;;;7.00;99.90;;;;;;5011748;28;20436;-57
2021/12/19 00:28:03;;;;;;;11.52;7.57;;;7.00;99.90;;;;;;5010114;28;20049;-58
2021/12/19 00:30:29;;;;;;;10.80;8.05;;;7.00;99.90;;;;;;5013593;28;20638;-57
2021/12/19 00:32:55;;;;;;;15.45;8.88;;;7.00;99.90;;;;;;5013237;28;20094;-57
2021/12/19 00:35:22;;;;;;;14.00;8.43;;;7.00;99.90;;;;;;5012171;28;20121;-58
2021/12/19 00:37:48;;;;;;;13.95;8.85;;;7.00;99.90;;;;;;4996595;28;20050;-57
2021/12/19 00:40:15;;;;;;;12.65;8.55;;;7.00;99.90;;;;;;5012377;28;20041;-58
2021/12/19 00:42:41;;;;;;;11.80;8.95;;;7.00;99.90;;;;;;5008206;28;20092;-56
2021/12/19 00:45:16;;;;;;;13.27;8.70;;;7.00;99.90;;;;;;5008060;28;20464;-56
2021/12/19 00:47:45;;;;;;;14.88;8.88;;;7.00;99.90;;;;;;5001305;28;20112;-57
2021/12/19 00:50:12;;;;;;;14.82;8.60;;;7.00;99.90;;;;;;5010038;28;20037;-56
2021/12/19 00:52:38;;;;;;;14.52;8.20;;;7.00;99.90;;;;;;5011813;28;20058;-57
2021/12/19 00:55:04;;;;;;;13.80;7.85;;;7.00;99.90;;;;;;5009666;28;20455;-56
2021/12/19 00:57:30;;;;;;;10.80;7.53;;;7.00;99.90;;;;;;5009992;28;20046;-58
2021/12/19 00:59:55;;;;;;;10.93;7.20;;;7.00;99.90;;;;;;5008796;28;20092;-57
2021/12/19 01:02:21;;;;;;;10.48;7.18;;;7.00;99.90;;;;;;5011329;28;20408;-56
2021/12/19 01:04:46;;;;;;;10.93;6.93;;;7.10;99.90;;;;;;5009791;28;20198;-57
2021/12/19 01:07:12;;;;;;;8.13;6.65;;;7.00;99.90;;;;;;5009994;28;20326;-58
2021/12/19 01:09:38;;;;;;;8.73;5.75;;;7.00;99.90;;;;;;5010074;28;20038;-57
2021/12/19 01:12:04;;;;;;;9.98;6.50;;;7.00;99.90;;;;;;5008488;28;20057;-57
2021/12/19 01:14:30;;;;;;;10.07;6.57;;;7.10;99.90;;;;;;5010454;28;20565;-56
2021/12/19 01:16:56;;;;;;;12.13;6.53;;;7.00;99.90;;;;;;5010940;28;20042;-57
2021/12/19 01:19:23;;;;;;;12.20;6.38;;;7.10;99.90;;;;;;5011479;28;20346;-57
2021/12/19 01:21:50;;;;;;;10.10;7.13;;;7.10;99.90;;;;;;5006600;28;20045;-56
2021/12/19 01:24:16;;;;;;;9.80;7.05;;;7.10;99.90;;;;;;5009353;28;20057;-57
2021/12/19 01:26:42;;;;;;;12.70;6.68;;;7.10;99.90;;;;;;5008136;28;20041;-58
2021/12/19 01:29:11;;;;;;;11.38;7.30;;;7.10;99.90;;;;;;5011059;28;20480;-56
2021/12/19 01:31:37;;;;;;;10.65;6.97;;;7.10;99.90;;;;;;5010558;28;20096;-56
2021/12/19 01:34:03;;;;;;;11.55;6.85;;;7.10;99.90;;;;;;5009666;28;20081;-58
2021/12/19 01:36:28;;;;;;;10.63;7.40;;;7.10;99.90;;;;;;5009549;28;20065;-58
2021/12/19 01:38:54;;;;;;;11.52;7.85;;;7.10;99.90;;;;;;5009299;28;20074;-58
2021/12/19 01:41:19;;;;;;;10.68;7.50;;;7.10;99.90;;;;;;5009167;28;20049;-56
2021/12/19 01:43:45;;;;;;;12.95;7.82;;;7.10;99.90;;;;;;5010667;28;20104;-57
2021/12/19 01:46:12;;;;;;;10.98;7.45;;;7.10;99.90;;;;;;5002319;28;20042;-58
2021/12/19 01:48:37;;;;;;;10.88;7.70;;;7.10;99.90;;;;;;5006493;28;20044;-57
2021/12/19 01:51:04;;;;;;;10.70;7.00;;;7.10;99.90;;;;;;4988444;28;20041;-58
2021/12/19 01:53:29;;;;;;;10.23;7.10;;;7.10;99.90;;;;;;4991345;28;20057;-58
2021/12/19 01:55:55;;;;;;;12.43;7.20;;;7.10;99.90;;;;;;4997854;28;20041;-57
2021/12/19 01:58:21;;;;;;;10.45;6.78;;;7.10;99.90;;;;;;5003617;28;20060;-57
2021/12/19 02:00:50;;;;;;;10.10;6.75;;;7.10;99.90;;;;;;5007364;28;20092;-57
2021/12/19 02:03:16;;;;;;;10.98;6.95;;;7.20;99.90;;;;;;5009681;28;20044;-57
2021/12/19 02:05:44;;;;;;;10.50;6.85;;;7.20;99.90;;;;;;5010380;28;20037;-57
2021/12/19 02:08:11;;;;;;;11.05;7.13;;;7.10;99.90;;;;;;5008962;28;20431;-55
2021/12/19 02:10:37;;;;;;;9.05;6.40;;;7.10;99.90;;;;;;5011658;28;20396;-56
2021/12/19 02:13:05;;;;;;;5.50;4.43;;;7.10;99.90;;;;;;5007568;28;20425;-56
2021/12/19 02:15:32;;;;;;;4.68;3.60;;;7.10;99.90;;;;;;5010475;28;20479;-57
2021/12/19 02:18:07;;;;;;;5.10;3.47;;;7.10;99.90;;;;;;5007321;28;20042;-58
2021/12/19 02:20:37;;;;;;;5.38;3.92;;;7.10;99.90;;;;;;5008639;28;20085;-58
2021/12/19 02:23:04;;;;;;;6.10;3.83;;;7.10;99.90;;;;;;5007756;28;20046;-57
2021/12/19 02:25:29;;;;;;;3.97;3.20;;;7.10;99.90;;;;;;5009375;28;20057;-56
2021/12/19 02:27:55;;;;;;;3.67;2.80;;;7.10;99.90;;;;;;5008732;28;20030;-57
2021/12/19 02:30:21;;;;;;;2.97;2.67;;;7.10;99.90;;;;;;5008887;28;20050;-57
2021/12/19 02:32:46;;;;;;;2.42;2.00;;;7.10;99.90;;;;;;5009252;28;20121;-57
2021/12/19 02:35:18;;;;;;;2.47;2.00;;;7.10;99.90;;;;;;5010224;28;20054;-58
2021/12/19 02:38:16;;;;;;;2.60;2.25;;;7.10;99.90;;;;;;5009415;28;20073;-57
2021/12/19 02:48:09;;;;;;;5.28;2.55;;;7.10;99.90;;;;;;5003809;28;20496;-57
2021/12/19 02:48:49;;;;;;;4.35;3.47;;;7.10;99.90;;;;;;5002568;28;20112;-57
2021/12/19 02:51:15;;;;;;;6.43;4.47;;;7.20;99.90;;;;;;5007793;28;20427;-56
2021/12/19 02:53:43;;;;;;;8.10;4.53;;;7.10;99.90;;;;;;5007722;28;20121;-57
2021/12/19 02:56:11;;;;;;;6.30;4.50;;;7.10;99.90;;;;;;5008062;28;20443;-57
2021/12/19 02:58:40;;;;;;;7.55;4.32;;;7.20;99.90;;;;;;5010006;28;20078;-57
2021/12/19 03:01:13;;;;;;;3.92;3.35;;;7.10;99.90;;;;;;5008501;28;20042;-57
2021/12/19 03:03:39;;;;;;;4.38;2.85;;;7.10;99.90;;;;;;5009875;28;20038;-57
2021/12/19 03:06:05;;;;;;;2.58;2.03;;;7.10;99.90;;;;;;5008112;28;20041;-58
2021/12/19 03:08:31;;;;;;;1.98;1.70;;;7.10;99.90;;;;;;5003930;28;20046;-57
2021/12/19 03:11:27;;;;;;;3.75;1.67;;;7.10;99.90;;;;;;5008616;28;20049;-58
2021/12/19 03:19:11;;;;;;;2.67;2.10;;;7.10;99.90;;;;;;5000293;28;20152;-57
2021/12/19 03:21:37;;;;;;;4.53;2.30;;;7.10;99.90;;;;;;5008097;28;20038;-57
2021/12/19 03:24:03;;;;;;;2.75;2.33;;;7.10;99.90;;;;;;5009824;28;20088;-57
2021/12/19 03:26:29;;;;;;;2.80;2.10;;;7.00;99.90;;;;;;5010406;28;20084;-57
2021/12/19 03:28:54;;;;;;;3.38;1.90;;;7.00;99.90;;;;;;5007372;28;20089;-56
2021/12/19 03:31:20;;;;;;;1.75;1.40;;;7.00;99.90;;;;;;5006935;28;20124;-57
2021/12/19 03:33:45;;;;;;;2.38;1.70;;;7.00;99.90;;;;;;5007004;28;20049;-57
2021/12/19 03:36:11;;;;;;;1.73;1.50;;;7.00;99.90;;;;;;5010665;28;20518;-57
2021/12/19 03:38:41;;;;;;;2.58;1.77;;;7.00;99.90;;;;;;5013083;28;20377;-57
2021/12/19 03:41:20;;;;;;;2.38;1.80;;;7.00;99.90;;;;;;5013799;28;20152;-56
2021/12/19 03:43:46;;;;;;;3.08;1.75;;;7.00;99.90;;;;;;5013496;28;20056;-57
2021/12/19 03:46:13;;;;;;;3.92;2.08;;;7.00;99.90;;;;;;5012673;28;20034;-56
2021/12/19 03:48:39;;;;;;;2.63;1.65;;;7.00;99.90;;;;;;5011713;28;20054;-56
2021/12/19 03:51:05;;;;;;;3.90;2.10;;;7.00;99.90;;;;;;5009242;28;20041;-57
2021/12/19 03:53:31;;;;;;;3.22;2.00;;;7.00;99.90;;;;;;5010880;28;20073;-57
2021/12/19 03:55:56;;;;;;;3.70;2.10;;;7.00;99.90;;;;;;5008413;28;20077;-57
2021/12/19 03:58:22;;;;;;;4.10;2.03;;;6.90;99.90;;;;;;5008533;28;20591;-56
2021/12/19 04:00:50;;;;;;;3.65;2.10;;;6.90;99.90;;;;;;5012533;28;20136;-56
2021/12/19 04:03:21;;;;;;;;;;;6.90;99.90;;;;;;5009208;28;20053;-56
2021/12/19 04:05:47;;;;;;;2.55;1.67;;;6.90;99.90;;;;;;5013474;28;19917;-57
2021/12/19 04:08:14;;;;;;;2.03;1.52;;;6.90;99.90;;;;;;5010414;28;20060;-57
2021/12/19 04:10:39;;;;;;;1.10;1.00;;;6.90;99.90;;;;;;5010655;28;20060;-57
2021/12/19 04:13:06;;;;;;;1.25;1.00;;;6.80;99.90;;;;;;5013315;28;20034;-57
2021/12/19 04:15:31;;;;;;;1.38;1.20;;;6.80;99.90;;;;;;4996155;28;20050;-58
2021/12/19 04:17:57;;;;;;;1.98;1.20;;;6.80;99.90;;;;;;5011483;28;20042;-57
2021/12/19 04:20:22;;;;;;;1.20;1.00;;;6.80;99.90;;;;;;5011124;28;20045;-58
2021/12/19 04:22:51;;;;;;;1.73;1.17;;;6.80;99.90;;;;;;5012971;28;20128;-58
2021/12/19 04:25:17;;;;;;;1.30;1.00;;;6.70;99.90;;;;;;5011087;28;20045;-57
2021/12/19 04:27:44;;;;;;;1.50;1.20;;;6.70;99.90;;;;;;5012936;28;20042;-58
2021/12/19 04:30:12;;;;;;;2.42;1.40;;;6.70;99.90;;;;;;5012627;28;20041;-58
2021/12/19 04:32:43;;;;;;;3.55;1.50;;;6.70;99.90;;;;;;5011009;28;20042;-57
2021/12/19 04:35:10;;;;;;;1.98;1.33;;;6.70;99.90;;;;;;5010940;28;20073;-57
2021/12/19 04:38:22;;;;;;;1.98;1.60;;;6.70;99.90;;;;;;5013236;28;20056;-57
2021/12/19 04:41:12;;;;;;;2.75;1.30;;;6.70;99.90;;;;;;5013344;28;20053;-57
2021/12/19 04:52:03;;;;;;;3.42;1.60;;;6.70;99.90;;;;;;5011715;28;20147;-54
2021/12/19 04:59:51;;;;;;;3.75;1.75;;;6.70;99.90;;;;;;4994226;28;20053;-56
2021/12/19 05:15:35;;;;;;;4.38;2.28;;;6.60;99.90;;;;;;5008504;28;20050;-56
2021/12/19 05:18:05;;;;;;;6.22;2.30;;;6.60;99.90;;;;;;5008494;28;20038;-55
2021/12/19 05:20:33;;;;;;;4.00;2.67;;;6.60;99.90;;;;;;5008080;28;20136;-57
2021/12/19 05:23:18;;;;;;;5.53;2.20;;;6.60;99.90;;;;;;5008611;28;20045;-55
2021/12/19 05:25:44;;;;;;;4.03;2.25;;;6.60;99.90;;;;;;5009449;28;20049;-57
2021/12/19 05:28:09;;;;;;;3.58;2.03;;;6.60;99.90;;;;;;5008274;28;20389;-57
2021/12/19 05:30:35;;;;;;;4.30;2.30;;;6.60;99.90;;;;;;5008388;28;20495;-57
2021/12/19 05:33:02;;;;;;;6.45;2.85;;;6.60;99.90;;;;;;5009082;28;20038;-57
2021/12/19 05:35:53;;;;;;;4.72;2.45;;;6.60;99.90;;;;;;5008989;28;20524;-56
2021/12/19 05:46:31;;;;;;;5.25;2.58;;;6.50;99.90;;;;;;5007551;28;20119;-55
2021/12/19 05:48:57;;;;;;;4.65;2.45;;;6.50;99.90;;;;;;5006228;28;20802;-56
2021/12/19 05:51:22;;;;;;;2.88;2.10;;;6.50;99.90;;;;;;5007335;28;20422;-56
2021/12/19 05:53:48;;;;;;;3.67;1.92;;;6.50;99.90;;;;;;5008099;28;20049;-57
2021/12/19 05:56:14;;;;;;;4.40;1.75;;;6.50;99.90;;;;;;4991709;28;20046;-56
2021/12/19 05:58:39;;;;;;;4.82;1.70;;;6.50;99.90;;;;;;4988663;28;20119;-56
2021/12/19 06:01:05;;;;;;;3.28;1.80;;;6.50;99.90;;;;;;5008844;28;20069;-57
2021/12/19 06:03:30;;;;;;;2.40;1.70;;;6.50;99.90;;;;;;5007309;28;20446;-56
2021/12/19 06:05:56;;;;;;;3.45;1.70;;;6.50;99.90;;;;;;5005460;28;20128;-56
2021/12/19 06:08:22;;;;;;;3.15;1.52;;;6.50;99.90;;;;;;5009412;28;20504;-57
2021/12/19 06:10:47;;;;;;;2.55;1.42;;;6.50;99.90;;;;;;5008931;28;20037;-55
2021/12/19 06:13:13;;;;;;;2.65;1.40;;;6.50;99.90;;;;;;5006553;28;20046;-56
2021/12/19 06:15:38;;;;;;;2.80;1.48;;;6.50;99.90;;;;;;5004129;28;20055;-57
2021/12/19 06:18:04;;;;;;;2.90;1.40;;;6.50;99.90;;;;;;5008372;28;20045;-55
2021/12/19 06:20:31;;;;;;;2.95;1.20;;;6.50;99.90;;;;;;5005301;28;20045;-55
2021/12/19 06:22:58;;;;;;;4.10;1.88;;;6.50;99.90;;;;;;5008300;28;20053;-55
2021/12/19 06:25:23;;;;;;;2.92;1.52;;;6.50;99.90;;;;;;5007048;28;20424;-57
2021/12/19 06:27:49;;;;;;;3.72;2.40;;;6.50;99.90;;;;;;5006121;28;20038;-56
2021/12/19 06:30:15;;;;;;;5.25;2.20;;;6.60;99.90;;;;;;4972947;28;20293;-56
2021/12/19 06:32:40;;;;;;;5.22;2.28;;;6.50;99.90;;;;;;5008655;28;20042;-54
2021/12/19 06:35:12;;;;;;;5.95;2.70;;;6.60;99.90;;;;;;5007142;28;20297;-56
2021/12/19 06:37:38;;;;;;;6.93;2.83;;;6.60;99.90;;;;;;5005568;28;20042;-54
2021/12/19 06:40:08;;;;;;;8.15;3.50;;;6.60;99.90;;;;;;5008738;28;20046;-56
2021/12/19 06:42:33;;;;;;;5.82;3.35;;;6.60;99.90;;;;;;5008002;28;20569;-56
2021/12/19 06:44:59;;;;;;;7.43;3.60;;;6.60;99.90;;;;;;5008287;28;20065;-56
2021/12/19 06:47:25;;;;;;;7.68;3.42;;;6.60;99.90;;;;;;5004244;28;20099;-57
2021/12/19 06:49:50;;;;;;;10.32;4.50;;;6.60;99.90;;;;;;5005626;28;20511;-56
2021/12/19 06:52:16;;;;;;;10.57;3.38;;;6.60;99.90;;;;;;4990999;28;20053;-54
2021/12/19 06:54:41;;;;;;;7.95;3.85;;;6.70;99.90;;;;;;5006306;28;20052;-56
2021/12/19 06:57:07;;;;;;;11.68;3.95;;;6.70;99.90;;;;;;5007662;28;20038;-57
2021/12/19 06:59:33;;;;;;;9.10;3.95;;;6.70;99.90;;;;;;5005843;28;20484;-56
2021/12/19 07:01:58;;;;;;;6.75;2.83;;;6.70;99.90;;;;;;5006341;28;20104;-56
2021/12/19 07:04:24;;;;;;;5.75;2.90;;;6.70;99.90;;;;;;5003179;28;20465;-56
2021/12/19 07:06:49;;;;;;;7.22;3.05;;;6.70;99.90;;;;;;5006193;28;20373;-57
2021/12/19 07:09:15;;;;;;;5.70;3.35;;;6.70;99.90;;;;;;5007334;28;20047;-55
2021/12/19 07:11:40;;;;;;;7.47;3.30;;;6.70;99.90;;;;;;5007678;28;20115;-57
2021/12/19 07:14:06;;;;;;;9.10;4.05;;;6.70;99.90;;;;;;5007286;28;20159;-56
2021/12/19 07:16:31;;;;;;;5.30;3.60;;;6.70;99.90;;;;;;5008884;28;20403;-56
2021/12/19 07:18:57;;;;;;;7.93;4.57;;;6.70;99.90;;;;;;5005576;28;20054;-56
2021/12/19 07:21:24;;;;;;;10.45;5.03;;;6.70;99.90;;;;;;5006003;28;20033;-56
2021/12/19 07:23:49;;;;;;;10.00;5.50;;;6.70;99.90;;;;;;5002801;28;20057;-56
2021/12/19 07:26:15;;;;;;;14.73;6.70;;;6.70;99.90;;;;;;5007278;28;20067;-55
2021/12/19 07:28:43;;;;;;;15.15;7.35;;;6.70;99.90;;;;;;5005326;28;20415;-56
2021/12/19 07:31:09;;;;;;;14.82;7.63;;;6.70;99.90;;;;;;5005364;28;20038;-56
2021/12/19 07:33:35;;;;;;;16.13;8.05;;;6.70;99.90;;;;;;5008027;28;20417;-57
2021/12/19 07:36:01;;;;;;;20.75;8.48;;;6.70;99.90;;;;;;5004485;28;20051;-57
2021/12/19 07:38:36;;;;;;;19.50;8.50;;;6.70;99.90;;;;;;5004064;28;20418;-57
2021/12/19 07:41:02;;;;;;;21.00;8.50;;;6.70;99.90;;;;;;5007510;28;20155;-56
2021/12/19 07:43:28;;;;;;;17.75;9.05;;;6.80;99.90;;;;;;5007702;28;20054;-57
2021/12/19 07:45:55;;;;;;;16.83;9.07;;;6.80;99.90;;;;;;5005066;28;20100;-58
2021/12/19 07:48:20;;;;;;;23.23;9.80;;;6.80;99.90;;;;;;5005494;28;20192;-57
2021/12/19 07:50:46;;;;;;;22.38;9.75;;;6.80;99.90;;;;;;5008245;28;20159;-57
2021/12/19 07:53:11;;;;;;;25.30;10.60;;;6.80;99.90;;;;;;5005273;28;20399;-56
2021/12/19 07:55:37;;;;;;;22.63;9.80;;;6.80;99.90;;;;;;5005999;28;20041;-57
2021/12/19 07:58:03;;;;;;;20.17;10.60;;;6.80;99.90;;;;;;5005058;28;20097;-56
2021/12/19 08:00:28;;;;;;;21.98;10.18;;;6.80;99.90;;;;;;5004326;28;20138;-57
2021/12/19 08:02:54;;;;;;;21.48;9.88;;;6.80;99.90;;;;;;5004339;28;20057;-57
2021/12/19 08:05:21;;;;;;;21.85;10.10;;;6.90;99.90;;;;;;5004869;28;20078;-56
2021/12/19 08:07:49;;;;;;;18.90;10.35;;;6.80;99.90;;;;;;5006871;28;20448;-57
2021/12/19 08:12:43;;;;;;;20.02;10.93;;;6.90;99.90;;;;;;5008580;28;20140;-57
2021/12/19 08:15:11;;;;;;;23.98;10.43;;;6.90;99.90;;;;;;5005564;28;20133;-56
2021/12/19 08:17:37;;;;;;;22.27;10.40;;;6.90;99.90;;;;;;5005350;28;20061;-56
2021/12/19 08:20:06;;;;;;;25.80;10.38;;;6.90;99.90;;;;;;5006601;28;20383;-57
2021/12/19 08:22:33;;;;;;;25.10;10.55;;;6.90;99.90;;;;;;5007537;28;20117;-57
2021/12/19 08:24:59;;;;;;;20.77;9.73;;;6.90;99.90;;;;;;5006736;28;20107;-55
2021/12/19 08:27:26;;;;;;;18.27;9.75;;;6.90;99.90;;;;;;5005078;28;20488;-57
2021/12/19 08:29:54;;;;;;;26.20;9.77;;;6.90;99.90;;;;;;5009176;28;20391;-57
2021/12/19 08:32:20;;;;;;;23.00;8.43;;;6.90;99.90;;;;;;5010564;28;20046;-57
2021/12/19 08:34:46;;;;;;;21.92;8.82;;;6.90;99.90;;;;;;5008896;28;20042;-55
2021/12/19 08:37:11;;;;;;;18.65;7.63;;;6.90;99.90;;;;;;5010476;28;20045;-56
2021/12/19 08:39:38;;;;;;;21.95;7.90;;;6.90;99.90;;;;;;5008810;28;20046;-56
2021/12/19 08:42:06;;;;;;;21.35;6.90;;;6.90;99.90;;;;;;5010175;28;20057;-56
2021/12/19 08:44:32;;;;;;;14.98;6.07;;;6.90;99.90;;;;;;5009706;28;20129;-57
2021/12/19 08:46:58;;;;;;;11.77;5.65;;;6.90;99.90;;;;;;5010110;28;20104;-54
2021/12/19 08:49:24;;;;;;;19.10;6.78;;;6.90;99.90;;;;;;5007113;28;20582;-57
2021/12/19 08:51:50;;;;;;;15.55;5.80;;;7.00;99.90;;;;;;5005879;28;20077;-57
2021/12/19 08:54:15;;;;;;;14.48;5.47;;;7.00;99.90;;;;;;5008038;28;20034;-55
2021/12/19 08:56:41;;;;;;;13.02;5.60;;;7.00;99.90;;;;;;5007031;28;20057;-56
2021/12/19 08:59:06;;;;;;;12.68;5.20;;;7.00;99.90;;;;;;5007577;28;20129;-55
2021/12/19 09:01:32;;;;;;;16.88;5.65;;;7.00;99.90;;;;;;4988374;28;20569;-56
2021/12/19 09:03:59;;;;;;;14.20;5.43;;;7.00;99.90;;;;;;5008725;28;20054;-56
2021/12/19 09:06:24;;;;;;;15.30;5.32;;;7.00;99.90;;;;;;5010418;28;20050;-56
2021/12/19 09:08:50;;;;;;;15.23;5.38;;;7.00;99.90;;;;;;5010098;28;20048;-56
2021/12/19 09:11:16;;;;;;;12.45;4.80;;;7.00;99.90;;;;;;5010240;28;20074;-56
2021/12/19 09:13:42;;;;;;;12.48;5.20;;;7.00;99.90;;;;;;5011917;28;20077;-57
2021/12/19 09:16:07;;;;;;;15.98;5.30;;;7.10;99.90;;;;;;5007388;28;20053;-57
2021/12/19 09:18:33;;;;;;;14.60;5.57;;;7.10;99.90;;;;;;5007077;28;20101;-57
2021/12/19 09:20:59;;;;;;;15.52;5.75;;;7.10;99.90;;;;;;5008103;28;20038;-57
2021/12/19 09:23:24;;;;;;;14.13;5.50;;;7.10;99.90;;;;;;5012357;28;20116;-54
2021/12/19 09:25:50;;;;;;;15.23;5.68;;;7.10;99.90;;;;;;5010155;28;20041;-56
2021/12/19 09:28:18;;;;;;;16.38;5.00;;;7.10;99.90;;;;;;5008353;28;20457;-55
2021/12/19 09:30:44;;;;;;;15.20;5.25;;;7.10;99.90;;;;;;5008688;28;20092;-57
2021/12/19 09:33:09;;;;;;;14.93;4.72;;;7.10;99.90;;;;;;5006549;28;20511;-57
2021/12/19 09:35:35;;;;;;;18.55;5.32;;;7.10;99.90;;;;;;5009496;28;20044;-57
2021/12/19 09:38:03;;;;;;;11.18;4.95;;;7.10;99.90;;;;;;5007721;28;20050;-57
2021/12/19 09:40:38;;;;;;;19.20;6.07;;;7.10;99.90;;;;;;5007581;28;20519;-56
2021/12/19 09:43:21;;;;;;;13.88;4.78;;;7.20;99.90;;;;;;5006413;28;20068;-57
2021/12/19 09:45:52;;;;;;;12.10;4.60;;;7.20;99.90;;;;;;5007843;28;20088;-56
2021/12/19 09:48:18;;;;;;;15.07;4.35;;;7.20;99.90;;;;;;5008720;28;20140;-57
2021/12/19 09:50:44;;;;;;;15.05;4.78;;;7.20;99.90;;;;;;5003959;28;20128;-55
2021/12/19 09:53:09;;;;;;;12.55;4.85;;;7.20;99.90;;;;;;5006888;28;20050;-57
2021/12/19 09:55:35;;;;;;;13.32;4.70;;;7.30;99.90;;;;;;5008583;28;20483;-56
2021/12/19 09:58:00;;;;;;;15.35;4.43;;;7.30;99.90;;;;;;5006944;28;20100;-57
2021/12/19 10:00:26;;;;;;;13.05;4.30;;;7.30;99.90;;;;;;5009984;28;20064;-57
2021/12/19 10:02:51;;;;;;;13.27;4.97;;;7.30;99.90;;;;;;5008848;28;20072;-57
2021/12/19 10:05:25;;;;;;;11.02;4.55;;;7.30;99.90;;;;;;5011509;28;20369;-57
2021/12/19 10:07:57;;;;;;;14.65;4.95;;;7.30;99.90;;;;;;5009355;28;20123;-56
2021/12/19 10:10:46;;;;;;;16.35;4.28;;;7.30;99.90;;;;;;5005434;28;20050;-56
2021/12/19 10:13:13;;;;;;;13.25;4.57;;;7.40;99.90;;;;;;5009590;28;20064;-57
2021/12/19 10:15:41;;;;;;;10.18;4.13;;;7.40;99.90;;;;;;5010691;28;20050;-56
2021/12/19 10:18:14;;;;;;;12.82;4.47;;;7.40;99.90;;;;;;5009882;28;21051;-57
2021/12/19 10:20:56;;;;;;;18.25;4.90;;;7.50;99.90;;;;;;5011468;28;20052;-57
2021/12/19 10:23:31;;;;;;;11.63;4.10;;;7.50;99.90;;;;;;5009137;28;20049;-57
2021/12/19 10:25:58;;;;;;;13.27;4.22;;;7.50;99.90;;;;;;5004678;28;20476;-57
2021/12/19 10:28:24;;;;;;;16.67;5.03;;;7.50;99.90;;;;;;5009787;28;20089;-58
2021/12/19 10:30:49;;;;;;;14.23;4.97;;;7.50;99.90;;;;;;5008234;28;20049;-58
2021/12/19 10:33:18;;;;;;;13.57;4.75;;;7.50;99.90;;;;;;5005817;28;20046;-57
2021/12/19 10:35:55;;;;;;;10.60;4.07;;;7.50;99.90;;;;;;5004892;28;20038;-56
2021/12/19 10:38:25;;;;;;;12.85;4.15;;;7.50;99.90;;;;;;5002503;28;20045;-57
2021/12/19 10:41:06;;;;;;;12.18;4.13;;;7.50;99.90;;;;;;5007364;28;20145;-57
2021/12/19 10:43:33;;;;;;;12.27;4.03;;;7.60;99.90;;;;;;5007135;28;20136;-57
2021/12/19 10:46:04;;;;;;;9.68;4.20;;;7.50;99.90;;;;;;5005152;28;20863;-55
2021/12/19 10:48:41;;;;;;;11.73;4.07;;;7.60;99.90;;;;;;5005344;28;20081;-56
2021/12/19 10:51:11;;;;;;;10.40;3.72;;;7.60;99.90;;;;;;5003358;28;20124;-55
2021/12/19 10:53:54;;;;;;;11.60;4.13;;;7.60;99.90;;;;;;5005497;28;20113;-57
2021/12/19 10:56:39;;;;;;;8.80;3.63;;;7.60;99.90;;;;;;5005036;28;20410;-55
2021/12/19 10:59:07;;;;;;;8.52;3.70;;;7.60;99.90;;;;;;5003793;28;20042;-55
2021/12/19 11:01:39;;;;;;;;;;;7.60;99.90;;;;;;5005929;28;20144;-56
2021/12/19 11:04:11;;;;;;;8.23;3.65;;;7.60;99.90;;;;;;5003984;28;19927;-56
2021/12/19 11:06:49;;;;;;;8.15;3.90;;;7.60;99.90;;;;;;5005761;28;20037;-56
2021/12/19 11:09:22;;;;;;;7.93;3.40;;;7.60;99.90;;;;;;5007156;28;20046;-55
2021/12/19 11:11:50;;;;;;;12.38;3.60;;;7.60;99.90;;;;;;5004226;28;21298;-56
2021/12/19 11:14:19;;;;;;;10.15;3.20;;;7.60;99.90;;;;;;4987560;28;20504;-56
2021/12/19 11:16:45;;;;;;;12.18;3.72;;;7.60;99.90;;;;;;5006462;28;20046;-55
2021/12/19 11:19:11;;;;;;;11.50;3.42;;;7.60;99.90;;;;;;5001051;28;20148;-56
2021/12/19 11:21:37;;;;;;;7.13;3.58;;;7.60;99.90;;;;;;5004583;28;20107;-56
2021/12/19 11:24:14;;;;;;;12.43;3.45;;;7.60;99.90;;;;;;5005809;28;20072;-55
2021/12/19 11:26:42;;;;;;;10.97;3.80;;;7.60;99.90;;;;;;5007650;28;20038;-56
2021/12/19 11:29:09;;;;;;;10.52;3.47;;;7.60;99.90;;;;;;5004803;28;20483;-55
2021/12/19 11:31:37;;;;;;;10.67;3.60;;;7.70;99.90;;;;;;5003807;28;20065;-56
2021/12/19 11:34:03;;;;;;;;;;;7.70;99.90;;;;;;4990018;28;20296;-55
2021/12/19 11:36:34;;;;;;;8.43;3.03;;;7.70;99.90;;;;;;5003624;28;20383;-57
2021/12/19 11:39:03;;;;;;;9.45;3.38;;;7.70;99.90;;;;;;5004769;28;20492;-56
2021/12/19 11:41:31;;;;;;;12.15;2.97;;;7.70;99.90;;;;;;5004457;28;20129;-55
2021/12/19 11:44:00;;;;;;;11.10;3.42;;;7.70;99.90;;;;;;5003660;28;21983;-56
2021/12/19 11:47:06;;;;;;;9.98;3.65;;;7.80;99.90;;;;;;5004753;28;20049;-55
2021/12/19 11:49:32;;;;;;;10.95;3.28;;;7.80;99.90;;;;;;4923413;29;20175;-56
2021/12/19 11:52:25;;;;;;;11.43;3.60;;;7.80;99.90;;;;;;4920939;29;20769;-56
2021/12/19 11:55:15;;;;;;;13.60;3.90;;;7.80;99.90;;;;;;4920717;29;20111;-55
2021/12/19 11:57:43;;;;;;;12.73;3.95;;;7.80;99.90;;;;;;4920059;29;20051;-57
2021/12/19 12:00:29;;;;;;;14.53;3.47;;;7.80;99.90;;;;;;4922300;29;20113;-56
2021/12/19 12:03:13;;;;;;;9.88;3.42;;;7.80;99.90;;;;;;4924885;29;20046;-56
2021/12/19 12:05:53;;;;;;;9.90;3.63;;;7.90;99.90;;;;;;4925924;29;20082;-56
2021/12/19 12:08:23;;;;;;;11.05;3.83;;;7.80;99.90;;;;;;4923126;29;20063;-56
2021/12/19 12:10:53;;;;;;;14.25;3.50;;;7.90;99.90;;;;;;4928639;29;20581;-57
2021/12/19 12:13:30;;;;;;;10.10;3.28;;;7.80;99.90;;;;;;4924616;29;20060;-55
2021/12/19 12:16:23;;;;;;;13.38;3.67;;;7.90;99.90;;;;;;4921719;29;20058;-57
2021/12/19 12:19:00;;;;;;;10.68;3.47;;;7.90;99.90;;;;;;4925938;29;20051;-56
2021/12/19 12:24:05;;;;;;;10.43;3.22;;;7.80;99.90;;;;;;4987018;28;20455;-56
2021/12/19 12:26:54;;;;;;;12.57;3.22;;;7.90;99.90;;;;;;5012774;28;20041;-56
2021/12/19 12:29:21;;;;;;;9.68;3.65;;;7.80;99.90;;;;;;5008904;28;20054;-57
2021/12/19 12:31:47;;;;;;;11.00;3.30;;;7.80;99.90;;;;;;5007460;28;20563;-56
2021/12/19 12:34:16;;;;;;;13.38;3.47;;;7.80;99.90;;;;;;5010509;28;20061;-56
2021/12/19 12:36:42;;;;;;;9.70;2.75;;;7.80;99.90;;;;;;5008140;28;20046;-56
2021/12/19 12:39:17;;;;;;;12.50;2.92;;;7.80;99.90;;;;;;5004120;28;20567;-56
2021/12/19 12:44:14;;;;;;;12.63;3.22;;;7.80;99.90;;;;;;5011891;28;20050;-55
2021/12/19 12:46:41;;;;;;;;;;;7.80;99.90;;;;;;5004400;28;20132;-54
2021/12/19 12:49:14;;;;;;;15.57;3.10;;;7.80;99.90;;;;;;5002924;28;20392;-56
2021/12/19 12:51:50;;;;;;;11.25;2.80;;;7.90;99.90;;;;;;5004266;28;20038;-57
2021/12/19 12:54:24;;;;;;;12.10;2.80;;;7.90;99.90;;;;;;5003382;28;20044;-57
2021/12/19 12:56:52;;;;;;;11.10;3.10;;;7.90;99.90;;;;;;5007615;28;20042;-56
2021/12/19 12:59:19;;;;;;;12.70;3.08;;;7.90;99.90;;;;;;5009497;28;20040;-56
2021/12/19 13:01:50;;;;;;;15.45;2.67;;;7.90;99.90;;;;;;5009673;28;20053;-56
2021/12/19 13:04:22;;;;;;;13.80;3.20;;;7.90;99.90;;;;;;5010763;28;20042;-56
2021/12/19 13:06:57;;;;;;;12.77;3.00;;;7.90;99.90;;;;;;5009754;28;20392;-57
2021/12/19 13:09:26;;;;;;;13.70;2.55;;;7.90;99.90;;;;;;5008321;28;20042;-57
2021/12/19 13:12:02;;;;;;;12.07;2.90;;;7.90;99.90;;;;;;5004825;28;20062;-55
2021/12/19 13:14:30;;;;;;;15.93;3.50;;;7.90;99.90;;;;;;4999583;28;20519;-57
2021/12/19 13:17:12;;;;;;;16.50;3.00;;;7.90;99.90;;;;;;5001735;28;20053;-54
2021/12/19 13:19:44;;;;;;;12.32;3.45;;;7.90;99.90;;;;;;5004412;28;20053;-57
2021/12/19 13:22:25;;;;;;;10.50;2.75;;;7.90;99.90;;;;;;4999996;28;20045;-57
2021/12/19 13:24:53;;;;;;;15.32;3.10;;;7.90;99.90;;;;;;5004588;28;20049;-56
2021/12/19 13:27:20;;;;;;;;;;;7.80;99.90;;;;;;4992813;28;20049;-57
2021/12/19 13:30:02;;;;;;;12.02;2.58;;;7.80;99.90;;;;;;5007516;28;20316;-57
2021/12/19 13:32:30;;;;;;;12.05;2.60;;;7.80;99.90;;;;;;5009789;28;20049;-56
2021/12/19 13:34:58;;;;;;;14.70;2.90;;;7.80;99.90;;;;;;5011247;28;20034;-56
2021/12/19 13:37:24;;;;;;;10.43;3.25;;;7.90;99.90;;;;;;5009758;28;20100;-56
2021/12/19 13:40:22;;;;;;;13.55;2.83;;;7.90;99.90;;;;;;5009023;28;20464;-56
2021/12/19 13:42:54;;;;;;;13.38;2.95;;;7.80;99.90;;;;;;4989464;28;20140;-57
2021/12/19 13:45:44;;;;;;;18.15;3.17;;;7.80;99.90;;;;;;5005288;28;20084;-55
2021/12/19 13:48:15;;;;;;;15.60;3.17;;;7.80;99.90;;;;;;5000282;28;20570;-57
2021/12/19 13:50:52;;;;;;;13.27;2.95;;;7.80;99.90;;;;;;5002464;28;20069;-57
2021/12/19 13:53:17;;;;;;;11.82;2.67;;;7.80;99.90;;;;;;5013038;28;20697;-57
2021/12/19 13:56:13;;;;;;;13.88;2.92;;;7.70;99.90;;;;;;5011962;28;20121;-57
2021/12/19 13:58:45;;;;;;;13.18;2.90;;;7.70;99.90;;;;;;4985659;28;20476;-57
2021/12/19 14:01:11;;;;;;;18.08;3.03;;;7.70;99.90;;;;;;5011333;28;20049;-56